Time;durP1;ratioP1;P1;durP2;ratioP2;P2;SDS_P1;SDS_P2;PMS_P1;PMS_P2;Temp;Humidity;BMP_temperature;BMP_pressure;BME280_temperature;BME280_humidity;BME280_pressure;Samples;Min_cycle;Max_cycle;Signal;HPM_P1;HPM_P2
2023/12/25 00:01:05;;;;;;;7.10;2.10;;;14.20;84.90;;;;;;5054633;28;20033;-62
2023/12/25 00:03:31;;;;;;;6.57;2.10;;;14.20;84.90;;;;;;5059377;28;20067;-62
2023/12/25 00:05:57;;;;;;;9.23;2.50;;;14.20;84.90;;;;;;5054753;28;20407;-62
2023/12/25 00:08:22;;;;;;;5.85;1.98;;;14.20;84.90;;;;;;5057845;28;20049;-62
2023/12/25 00:10:48;;;;;;;7.18;2.00;;;14.20;84.90;;;;;;5056043;28;20044;-62
2023/12/25 00:13:14;;;;;;;8.18;2.10;;;14.20;84.90;;;;;;5054629;28;20033;-62
2023/12/25 00:15:40;;;;;;;6.63;1.95;;;14.20;84.90;;;;;;5057115;28;20058;-62
2023/12/25 00:18:05;;;;;;;8.98;2.30;;;14.20;84.90;;;;;;5056933;28;20044;-62
2023/12/25 00:20:31;;;;;;;6.03;1.75;;;14.20;85.00;;;;;;5056059;28;20137;-62
2023/12/25 00:22:57;;;;;;;7.32;2.40;;;14.20;85.10;;;;;;5037638;28;20017;-61
2023/12/25 00:25:22;;;;;;;6.10;2.13;;;14.20;85.10;;;;;;5052736;28;20021;-62
2023/12/25 00:27:48;;;;;;;5.20;2.00;;;14.10;85.10;;;;;;5053338;28;20029;-62
2023/12/25 00:30:15;;;;;;;7.40;1.80;;;14.10;85.10;;;;;;5057589;28;20029;-62
2023/12/25 00:32:40;;;;;;;7.68;2.10;;;14.10;85.20;;;;;;5058455;28;20068;-62
2023/12/25 00:35:06;;;;;;;8.05;1.92;;;14.10;85.20;;;;;;5055510;28;20083;-62
2023/12/25 00:37:33;;;;;;;7.57;2.33;;;14.10;85.20;;;;;;5056751;28;20020;-61
2023/12/25 00:39:59;;;;;;;9.55;2.10;;;14.20;85.20;;;;;;5055079;28;20131;-62
2023/12/25 00:42:25;;;;;;;5.47;1.80;;;14.20;85.10;;;;;;5055278;28;20025;-62
2023/12/25 00:44:50;;;;;;;5.53;1.52;;;14.10;85.00;;;;;;5052315;28;20373;-61
2023/12/25 00:47:18;;;;;;;6.05;1.70;;;14.10;85.10;;;;;;5054944;28;20442;-61
2023/12/25 00:49:43;;;;;;;8.63;2.30;;;14.10;85.00;;;;;;5053110;28;20029;-62
2023/12/25 00:52:09;;;;;;;6.43;1.75;;;14.10;85.00;;;;;;5054367;28;20036;-61
2023/12/25 00:54:36;;;;;;;7.13;1.80;;;14.10;85.00;;;;;;5055364;28;20056;-61
2023/12/25 00:57:02;;;;;;;9.20;2.17;;;14.10;85.10;;;;;;5056753;28;20104;-61
2023/12/25 00:59:28;;;;;;;6.90;1.90;;;14.10;85.70;;;;;;5054481;28;20029;-62
2023/12/25 01:01:54;;;;;;;7.03;1.63;;;14.10;85.20;;;;;;5038826;28;20104;-62
2023/12/25 01:04:19;;;;;;;7.35;1.85;;;14.10;85.30;;;;;;5053042;28;20434;-61
2023/12/25 01:06:45;;;;;;;7.28;2.17;;;14.10;85.40;;;;;;5054461;28;20083;-62
2023/12/25 01:09:12;;;;;;;7.82;1.92;;;14.00;85.40;;;;;;5054559;28;20028;-62
2023/12/25 01:11:42;;;;;;;8.73;2.78;;;14.00;85.50;;;;;;5056672;28;20330;-62
2023/12/25 01:14:08;;;;;;;5.85;2.00;;;14.00;85.60;;;;;;5051641;28;20025;-61
2023/12/25 01:16:34;;;;;;;8.27;1.80;;;14.00;85.70;;;;;;5051889;28;20036;-62
2023/12/25 01:19:00;;;;;;;8.45;2.05;;;14.00;85.80;;;;;;5054144;28;20025;-62
2023/12/25 01:21:26;;;;;;;10.25;2.30;;;14.00;85.90;;;;;;5055050;28;20029;-62
2023/12/25 01:23:52;;;;;;;6.40;2.08;;;14.00;85.90;;;;;;5057376;28;20040;-62
2023/12/25 01:26:18;;;;;;;8.02;2.25;;;13.90;85.90;;;;;;5054680;28;20098;-62
2023/12/25 01:28:44;;;;;;;5.75;1.27;;;13.90;86.00;;;;;;5055586;28;20027;-61
2023/12/25 01:31:10;;;;;;;7.40;1.60;;;13.90;86.20;;;;;;5053759;28;20053;-62
2023/12/25 01:33:36;;;;;;;5.30;1.50;;;13.90;86.10;;;;;;5054061;28;20400;-62
2023/12/25 01:36:02;;;;;;;9.52;2.03;;;13.90;86.10;;;;;;5055729;28;20096;-62
2023/12/25 01:38:29;;;;;;;7.53;1.77;;;13.90;86.10;;;;;;5035792;28;20469;-62
2023/12/25 01:40:55;;;;;;;7.13;1.88;;;13.90;86.10;;;;;;5052261;28;20048;-62
2023/12/25 01:43:20;;;;;;;8.00;2.00;;;13.90;86.10;;;;;;5054206;28;20046;-62
2023/12/25 01:45:46;;;;;;;10.68;2.80;;;13.90;86.10;;;;;;5053340;28;20029;-62
2023/12/25 01:48:12;;;;;;;7.70;1.70;;;13.90;86.20;;;;;;5052834;28;20041;-62
2023/12/25 01:50:39;;;;;;;10.77;2.40;;;13.90;86.20;;;;;;5052777;28;20059;-62
2023/12/25 01:53:06;;;;;;;8.43;2.42;;;13.90;86.20;;;;;;5040164;28;20469;-62
2023/12/25 01:55:33;;;;;;;7.70;1.90;;;13.90;86.20;;;;;;5035725;28;20116;-62
2023/12/25 01:58:00;;;;;;;10.45;2.30;;;13.90;86.20;;;;;;5037250;28;20400;-61
2023/12/25 02:00:26;;;;;;;8.20;1.90;;;13.90;86.10;;;;;;5053775;28;20021;-61
2023/12/25 02:02:52;;;;;;;7.63;1.65;;;13.90;86.00;;;;;;5052278;28;20031;-62
2023/12/25 02:05:17;;;;;;;6.10;1.38;;;13.80;85.80;;;;;;5052797;28;20061;-63
2023/12/25 02:07:45;;;;;;;6.88;1.60;;;13.80;85.70;;;;;;5052007;28;20472;-62
2023/12/25 02:10:28;;;;;;;4.15;0.90;;;13.70;85.50;;;;;;5034985;28;20029;-62
2023/12/25 02:12:55;;;;;;;5.38;1.15;;;13.70;85.20;;;;;;5035726;28;20426;-62
2023/12/25 02:15:22;;;;;;;3.78;0.98;;;13.60;85.10;;;;;;5056216;28;20024;-62
2023/12/25 02:17:50;;;;;;;5.32;1.05;;;13.60;85.10;;;;;;5052615;28;20424;-62
2023/12/25 02:20:16;;;;;;;3.75;1.23;;;13.50;85.10;;;;;;5037999;28;20437;-62
2023/12/25 02:22:42;;;;;;;5.28;1.10;;;13.40;85.10;;;;;;5053546;28;20021;-62
2023/12/25 02:25:29;;;;;;;3.97;1.02;;;13.40;85.00;;;;;;5053388;28;20362;-62
2023/12/25 02:27:55;;;;;;;3.45;0.98;;;13.30;84.90;;;;;;5052352;28;20040;-62
2023/12/25 02:30:22;;;;;;;5.03;1.10;;;13.30;85.00;;;;;;5052799;28;20021;-63
2023/12/25 02:32:48;;;;;;;3.72;0.90;;;13.30;85.00;;;;;;5052704;28;20047;-62
2023/12/25 02:35:13;;;;;;;4.00;0.70;;;13.20;85.00;;;;;;5053310;28;20112;-62
2023/12/25 02:37:40;;;;;;;2.70;1.00;;;13.20;85.10;;;;;;5052009;28;20055;-62
2023/12/25 02:40:06;;;;;;;2.90;0.90;;;13.20;85.00;;;;;;5053639;28;20048;-62
2023/12/25 02:42:32;;;;;;;4.07;0.88;;;13.20;85.00;;;;;;5055201;28;20132;-62
2023/12/25 02:44:58;;;;;;;4.97;1.30;;;13.20;85.00;;;;;;5051668;28;20100;-62
2023/12/25 02:47:23;;;;;;;8.15;1.60;;;13.30;85.10;;;;;;5054998;28;20144;-62
2023/12/25 02:49:49;;;;;;;4.68;1.40;;;13.30;85.10;;;;;;5053870;28;20061;-62
2023/12/25 02:52:15;;;;;;;4.93;1.10;;;13.30;85.10;;;;;;5052781;28;20017;-62
2023/12/25 02:54:41;;;;;;;6.32;1.33;;;13.40;85.20;;;;;;5053962;28;20420;-62
2023/12/25 02:57:06;;;;;;;6.00;1.38;;;13.40;85.20;;;;;;5051340;28;20522;-62
2023/12/25 02:59:32;;;;;;;9.82;2.13;;;13.40;85.20;;;;;;5053764;28;20021;-62
2023/12/25 03:01:58;;;;;;;6.95;1.55;;;13.40;85.20;;;;;;5055682;28;20063;-61
2023/12/25 03:04:24;;;;;;;9.25;1.92;;;13.50;85.30;;;;;;5054518;28;20462;-62
2023/12/25 03:06:49;;;;;;;9.35;2.25;;;13.50;85.30;;;;;;5055615;28;20044;-62
2023/12/25 03:09:16;;;;;;;13.57;2.55;;;13.60;85.30;;;;;;5051445;28;20029;-62
2023/12/25 03:11:43;;;;;;;8.40;1.75;;;13.50;85.30;;;;;;5053541;28;20369;-62
2023/12/25 03:14:09;;;;;;;9.27;2.17;;;13.50;85.40;;;;;;5052606;28;20037;-61
2023/12/25 03:16:35;;;;;;;9.40;2.25;;;13.60;85.60;;;;;;5054274;28;20495;-61
2023/12/25 03:19:00;;;;;;;10.18;2.08;;;13.60;85.60;;;;;;5060508;28;20040;-62
2023/12/25 03:21:26;;;;;;;8.50;2.45;;;13.60;85.70;;;;;;5056824;28;20036;-62
2023/12/25 03:23:52;;;;;;;10.82;2.42;;;13.60;85.80;;;;;;5054834;28;20097;-62
2023/12/25 03:26:17;;;;;;;11.48;2.13;;;13.60;85.80;;;;;;5055118;28;20017;-62
2023/12/25 03:28:43;;;;;;;13.57;2.00;;;13.60;85.70;;;;;;5055726;28;20477;-61
2023/12/25 03:31:09;;;;;;;8.77;2.40;;;13.60;85.70;;;;;;5059578;28;20033;-62
2023/12/25 03:33:37;;;;;;;7.97;2.05;;;13.60;85.80;;;;;;5040403;28;20025;-61
2023/12/25 03:36:04;;;;;;;9.98;1.98;;;13.60;85.80;;;;;;5059891;28;20032;-62
2023/12/25 03:38:30;;;;;;;12.18;2.65;;;13.60;85.90;;;;;;5055028;28;20017;-62
2023/12/25 03:40:56;;;;;;;10.88;3.03;;;13.60;85.90;;;;;;5057016;28;20048;-62
2023/12/25 03:43:23;;;;;;;13.55;2.72;;;13.70;86.00;;;;;;5057730;28;20029;-62
2023/12/25 03:45:52;;;;;;;10.20;1.90;;;13.70;85.90;;;;;;5056411;28;20040;-61
2023/12/25 03:48:20;;;;;;;11.35;2.50;;;13.70;85.80;;;;;;5055135;28;20025;-62
2023/12/25 03:50:46;;;;;;;8.65;2.10;;;13.70;85.80;;;;;;5055059;28;20078;-61
2023/12/25 03:53:12;;;;;;;9.35;2.03;;;13.70;85.80;;;;;;5054087;28;20029;-62
2023/12/25 03:55:38;;;;;;;7.47;1.73;;;13.70;85.70;;;;;;5037646;28;20032;-62
2023/12/25 03:58:04;;;;;;;8.18;1.70;;;13.70;85.60;;;;;;5054663;28;20025;-62
2023/12/25 04:00:29;;;;;;;9.43;2.28;;;13.70;85.60;;;;;;5052514;28;20070;-62
2023/12/25 04:02:56;;;;;;;7.53;1.75;;;13.70;85.50;;;;;;5054762;28;20489;-61
2023/12/25 04:05:23;;;;;;;10.65;2.53;;;13.70;85.50;;;;;;5051470;28;20397;-62
2023/12/25 04:07:50;;;;;;;7.00;1.70;;;13.80;85.50;;;;;;5054552;28;20033;-62
2023/12/25 04:10:16;;;;;;;9.23;1.98;;;13.70;85.40;;;;;;5054910;28;20036;-61
2023/12/25 04:12:42;;;;;;;8.23;1.90;;;13.70;85.40;;;;;;5053757;28;20296;-61
2023/12/25 04:15:09;;;;;;;7.13;1.95;;;13.70;85.50;;;;;;5050276;28;20029;-62
2023/12/25 04:17:35;;;;;;;6.57;1.67;;;13.70;85.40;;;;;;5054248;28;20416;-62
2023/12/25 04:20:01;;;;;;;8.13;2.00;;;13.70;85.40;;;;;;5053796;28;20037;-63
2023/12/25 04:22:27;;;;;;;9.15;2.15;;;13.70;85.40;;;;;;5048899;28;20032;-62
2023/12/25 04:24:52;;;;;;;12.20;2.67;;;13.70;85.40;;;;;;5052580;28;20021;-62
2023/12/25 04:27:18;;;;;;;6.75;1.85;;;13.70;85.40;;;;;;5052660;28;20064;-62
2023/12/25 04:29:45;;;;;;;7.63;1.63;;;13.70;85.40;;;;;;5054185;28;20142;-62
2023/12/25 04:32:11;;;;;;;7.95;1.90;;;13.70;85.40;;;;;;5054373;28;20377;-62
2023/12/25 04:34:37;;;;;;;10.75;2.83;;;13.70;85.40;;;;;;5053778;28;20044;-62
2023/12/25 04:37:03;;;;;;;9.65;2.25;;;13.70;85.30;;;;;;5053288;28;20021;-62
2023/12/25 04:39:29;;;;;;;9.60;1.90;;;13.70;85.30;;;;;;5051046;28;20427;-62
2023/12/25 04:41:55;;;;;;;9.50;2.10;;;13.70;85.30;;;;;;5053883;28;20067;-62
2023/12/25 04:44:21;;;;;;;13.38;2.67;;;13.70;85.30;;;;;;5053551;28;20092;-62
2023/12/25 04:46:47;;;;;;;7.38;1.40;;;13.80;85.30;;;;;;5053133;28;20036;-62
2023/12/25 04:49:13;;;;;;;9.40;2.03;;;13.70;85.20;;;;;;5052775;28;20477;-62
2023/12/25 04:51:39;;;;;;;9.68;2.30;;;13.70;85.20;;;;;;5037003;28;20025;-62
2023/12/25 04:54:05;;;;;;;6.72;1.33;;;13.70;85.30;;;;;;5053435;28;20025;-62
2023/12/25 04:56:31;;;;;;;8.60;1.85;;;13.70;85.30;;;;;;5053282;28;20017;-62
2023/12/25 04:58:57;;;;;;;9.35;2.10;;;13.70;85.30;;;;;;5054328;28;20017;-62
2023/12/25 05:01:25;;;;;;;14.63;3.03;;;13.70;85.30;;;;;;5051300;28;20040;-62
2023/12/25 05:03:51;;;;;;;9.73;2.50;;;13.70;85.30;;;;;;5053165;28;20426;-62
2023/12/25 05:06:17;;;;;;;8.68;1.83;;;13.70;85.30;;;;;;5054169;28;20045;-62
2023/12/25 05:08:42;;;;;;;6.75;2.30;;;13.70;85.30;;;;;;5053271;28;20021;-62
2023/12/25 05:11:08;;;;;;;5.13;1.75;;;13.70;85.20;;;;;;5052987;28;20116;-62
2023/12/25 05:13:34;;;;;;;7.72;1.90;;;13.70;85.20;;;;;;5032867;28;20377;-62
2023/12/25 05:16:00;;;;;;;11.43;2.35;;;13.70;85.20;;;;;;5054709;28;20025;-63
2023/12/25 05:18:26;;;;;;;6.78;1.38;;;13.70;85.20;;;;;;5053380;28;20029;-62
2023/12/25 05:20:52;;;;;;;7.15;1.85;;;13.70;85.20;;;;;;5053346;28;20075;-62
2023/12/25 05:23:18;;;;;;;7.80;2.00;;;13.70;85.20;;;;;;5053567;28;20056;-62
2023/12/25 05:25:44;;;;;;;7.03;1.95;;;13.70;85.20;;;;;;5053406;28;20037;-62
2023/12/25 05:28:10;;;;;;;7.63;2.00;;;13.70;85.30;;;;;;5053432;28;20025;-62
2023/12/25 05:30:36;;;;;;;8.40;1.90;;;13.70;85.30;;;;;;5050665;28;20031;-62
2023/12/25 05:33:02;;;;;;;5.88;1.67;;;13.70;85.30;;;;;;5054139;28;20029;-61
2023/12/25 05:35:28;;;;;;;7.03;1.73;;;13.70;85.30;;;;;;5055442;28;20031;-62
2023/12/25 05:37:55;;;;;;;4.85;1.85;;;13.70;85.80;;;;;;5050480;28;20029;-62
2023/12/25 05:40:22;;;;;;;7.07;1.73;;;13.70;85.30;;;;;;5049546;28;20045;-62
2023/12/25 05:42:48;;;;;;;5.18;1.30;;;13.70;85.30;;;;;;5049304;28;20120;-62
2023/12/25 05:45:14;;;;;;;2.95;1.13;;;13.70;85.20;;;;;;5033506;28;20120;-62
2023/12/25 05:47:40;;;;;;;6.63;1.45;;;13.60;85.20;;;;;;5049990;28;20106;-62
2023/12/25 05:50:09;;;;;;;4.32;1.40;;;13.60;85.20;;;;;;5053469;28;20056;-62
2023/12/25 05:52:35;;;;;;;3.05;1.10;;;13.60;85.30;;;;;;5052941;28;20048;-62
2023/12/25 05:55:00;;;;;;;5.60;1.85;;;13.60;85.30;;;;;;5053405;28;20101;-62
2023/12/25 05:57:28;;;;;;;5.95;1.50;;;13.60;85.40;;;;;;5035390;28;20123;-62
2023/12/25 05:59:54;;;;;;;5.82;1.75;;;13.60;85.50;;;;;;5053591;28;20104;-61
2023/12/25 06:02:20;;;;;;;6.53;1.60;;;13.60;85.50;;;;;;5051592;28;20120;-61
2023/12/25 06:04:46;;;;;;;8.40;1.60;;;13.60;85.60;;;;;;5044164;28;20491;-62
2023/12/25 06:07:12;;;;;;;6.88;1.83;;;13.60;85.50;;;;;;5039819;28;20403;-61
2023/12/25 06:09:38;;;;;;;7.57;1.60;;;13.60;85.60;;;;;;5038637;28;20032;-62
2023/12/25 06:12:04;;;;;;;6.85;1.63;;;13.60;85.60;;;;;;5042091;28;20091;-63
2023/12/25 06:14:30;;;;;;;5.00;1.40;;;13.60;85.60;;;;;;5040891;28;20033;-62
2023/12/25 06:16:56;;;;;;;6.47;1.52;;;13.60;85.70;;;;;;5052166;28;20028;-61
2023/12/25 06:19:22;;;;;;;6.90;1.92;;;13.60;85.80;;;;;;5052367;28;20024;-62
2023/12/25 06:21:47;;;;;;;7.80;1.42;;;13.70;85.80;;;;;;5052408;28;20025;-62
2023/12/25 06:24:13;;;;;;;5.13;1.60;;;13.60;85.90;;;;;;5052089;28;20025;-62
2023/12/25 06:26:39;;;;;;;4.82;1.63;;;13.70;85.90;;;;;;5052461;28;20037;-62
2023/12/25 06:29:05;;;;;;;7.97;1.83;;;13.60;85.90;;;;;;5052561;28;20029;-61
2023/12/25 06:31:31;;;;;;;8.80;2.38;;;13.60;85.90;;;;;;5027059;28;20482;-61
2023/12/25 06:33:57;;;;;;;7.75;1.65;;;13.60;86.00;;;;;;5053302;28;21036;-61
2023/12/25 06:36:23;;;;;;;5.15;2.10;;;13.60;86.00;;;;;;5051957;28;20025;-62
2023/12/25 06:38:49;;;;;;;7.15;1.42;;;13.60;86.10;;;;;;5052167;28;20112;-62
2023/12/25 06:41:15;;;;;;;6.88;1.55;;;13.60;86.10;;;;;;5051932;28;20432;-62
2023/12/25 06:43:40;;;;;;;3.05;1.40;;;13.60;86.10;;;;;;5050982;28;20106;-62
2023/12/25 06:46:06;;;;;;;4.97;1.38;;;13.60;86.10;;;;;;5037812;28;20116;-62
2023/12/25 06:48:32;;;;;;;4.60;1.30;;;13.60;86.10;;;;;;5051294;28;20057;-62
2023/12/25 06:50:58;;;;;;;5.88;1.80;;;13.60;86.10;;;;;;5038826;28;20490;-62
2023/12/25 06:53:24;;;;;;;5.13;1.20;;;13.60;86.10;;;;;;5056342;28;20021;-62
2023/12/25 06:55:49;;;;;;;6.38;1.73;;;13.50;86.10;;;;;;5057226;28;20099;-62
2023/12/25 06:58:15;;;;;;;3.70;1.40;;;13.60;86.10;;;;;;5057361;28;20017;-61
2023/12/25 07:00:41;;;;;;;4.53;1.30;;;13.60;86.10;;;;;;5056386;28;20116;-62
2023/12/25 07:03:07;;;;;;;3.85;1.10;;;13.50;85.90;;;;;;5056503;28;20036;-62
2023/12/25 07:05:33;;;;;;;3.42;0.90;;;13.60;86.00;;;;;;5055573;28;20124;-62
2023/12/25 07:07:59;;;;;;;2.72;1.10;;;13.50;85.90;;;;;;5056141;28;20040;-62
2023/12/25 07:10:24;;;;;;;3.17;0.90;;;13.50;85.90;;;;;;5056245;28;20060;-62
2023/12/25 07:12:50;;;;;;;2.40;1.00;;;13.50;85.80;;;;;;5056814;28;20413;-62
2023/12/25 07:15:16;;;;;;;5.03;0.98;;;13.50;85.70;;;;;;5055776;28;20375;-61
2023/12/25 07:17:42;;;;;;;1.63;0.63;;;13.50;85.60;;;;;;5055014;28;20147;-62
2023/12/25 07:20:08;;;;;;;4.15;1.23;;;13.50;85.50;;;;;;5056139;28;20036;-62
2023/12/25 07:22:34;;;;;;;3.95;0.95;;;13.50;85.40;;;;;;5056095;28;20082;-62
2023/12/25 07:25:06;;;;;;;3.22;1.00;;;13.40;85.30;;;;;;5055478;28;20077;-62
2023/12/25 07:27:32;;;;;;;5.22;1.08;;;13.40;85.30;;;;;;5056450;28;20036;-62
2023/12/25 07:29:58;;;;;;;4.50;1.27;;;13.50;85.20;;;;;;5054753;28;20118;-62
2023/12/25 07:32:24;;;;;;;3.58;1.10;;;13.40;85.10;;;;;;5056742;28;20112;-62
2023/12/25 07:34:49;;;;;;;5.40;1.10;;;13.40;85.70;;;;;;5054341;28;20029;-62
2023/12/25 07:37:15;;;;;;;4.68;1.30;;;13.40;85.10;;;;;;5057583;28;20096;-62
2023/12/25 07:39:42;;;;;;;5.15;1.42;;;13.40;85.00;;;;;;5057778;28;20041;-62
2023/12/25 07:42:08;;;;;;;5.03;1.25;;;13.40;84.90;;;;;;5059101;28;20028;-63
2023/12/25 07:44:39;;;;;;;3.55;1.67;;;13.40;84.90;;;;;;5052566;28;20049;-62
2023/12/25 07:47:05;;;;;;;3.17;1.50;;;13.40;84.90;;;;;;5058195;28;20032;-62
2023/12/25 07:49:31;;;;;;;3.80;1.52;;;13.40;84.90;;;;;;5038914;28;20033;-62
2023/12/25 07:51:57;;;;;;;5.70;1.75;;;13.40;84.80;;;;;;5057124;28;20079;-63
2023/12/25 07:54:23;;;;;;;4.68;1.52;;;13.40;84.70;;;;;;5055710;28;20036;-62
2023/12/25 07:56:48;;;;;;;4.78;1.63;;;13.40;84.70;;;;;;5056425;28;20029;-63
2023/12/25 07:59:14;;;;;;;3.35;1.23;;;13.40;84.70;;;;;;5057130;28;20086;-62
2023/12/25 08:01:40;;;;;;;2.78;1.17;;;13.40;84.60;;;;;;5053370;28;20473;-62
2023/12/25 08:04:05;;;;;;;3.80;1.45;;;13.40;84.60;;;;;;5056046;28;21372;-62
2023/12/25 08:06:31;;;;;;;4.47;1.00;;;13.30;84.50;;;;;;5053806;28;20476;-62
2023/12/25 08:08:57;;;;;;;3.88;0.80;;;13.30;84.40;;;;;;5054466;28;20468;-63
2023/12/25 08:11:23;;;;;;;4.60;1.33;;;13.30;84.40;;;;;;5053802;28;20028;-62
2023/12/25 08:13:48;;;;;;;4.72;1.48;;;13.40;84.40;;;;;;5055706;28;20032;-62
2023/12/25 08:16:14;;;;;;;4.20;1.20;;;13.30;84.20;;;;;;5054539;28;20040;-62
2023/12/25 08:18:40;;;;;;;3.85;1.25;;;13.40;84.30;;;;;;5051313;28;20103;-62
2023/12/25 08:21:07;;;;;;;3.60;1.60;;;13.30;84.20;;;;;;5054186;28;20326;-62
2023/12/25 08:23:33;;;;;;;2.60;1.00;;;13.30;84.20;;;;;;5055216;28;20040;-62
2023/12/25 08:26:00;;;;;;;4.03;1.42;;;13.30;84.10;;;;;;5054547;28;20329;-62
2023/12/25 08:28:26;;;;;;;4.20;1.33;;;13.40;84.10;;;;;;5055013;28;20029;-62
2023/12/25 08:30:51;;;;;;;3.35;0.80;;;13.30;84.00;;;;;;5053568;28;20036;-62
2023/12/25 08:33:17;;;;;;;5.80;1.60;;;13.40;84.00;;;;;;5054858;28;20104;-62
2023/12/25 08:35:43;;;;;;;5.80;1.83;;;13.40;84.00;;;;;;5054638;28;20056;-61
2023/12/25 08:38:09;;;;;;;3.47;1.38;;;13.40;84.00;;;;;;5054296;28;20013;-62
2023/12/25 08:40:35;;;;;;;4.25;1.08;;;13.40;84.00;;;;;;5051564;28;20492;-61
2023/12/25 08:43:01;;;;;;;4.47;1.40;;;13.40;83.90;;;;;;5053743;28;20029;-62
2023/12/25 08:45:26;;;;;;;3.72;1.40;;;13.40;83.90;;;;;;5052134;28;20503;-62
2023/12/25 08:47:52;;;;;;;4.53;1.17;;;13.40;83.80;;;;;;5054509;28;20031;-62
2023/12/25 08:50:18;;;;;;;4.15;1.17;;;13.40;83.80;;;;;;5054383;28;20036;-61
2023/12/25 08:52:44;;;;;;;5.72;1.30;;;13.40;83.80;;;;;;5054479;28;20033;-61
2023/12/25 08:55:10;;;;;;;4.47;1.40;;;13.40;84.50;;;;;;5052723;28;20024;-62
2023/12/25 08:57:37;;;;;;;4.47;1.35;;;13.40;83.80;;;;;;5051027;28;20068;-62
2023/12/25 09:00:07;;;;;;;3.67;1.40;;;13.40;83.80;;;;;;5051823;28;20055;-62
2023/12/25 09:02:33;;;;;;;5.88;1.80;;;13.40;83.70;;;;;;5051142;28;20058;-62
2023/12/25 09:04:59;;;;;;;6.75;1.90;;;13.40;83.70;;;;;;5053239;28;20044;-62
2023/12/25 09:07:25;;;;;;;6.45;2.10;;;13.40;83.70;;;;;;5052105;28;20127;-62
2023/12/25 09:09:50;;;;;;;4.55;1.80;;;13.40;83.70;;;;;;5051025;28;20115;-62
2023/12/25 09:12:16;;;;;;;3.70;1.52;;;13.40;83.70;;;;;;5053403;28;20037;-63
2023/12/25 09:14:45;;;;;;;4.32;1.50;;;13.40;83.70;;;;;;5053013;28;20032;-62
2023/12/25 09:17:10;;;;;;;5.88;1.60;;;13.40;83.70;;;;;;5051701;28;20139;-62
2023/12/25 09:19:36;;;;;;;4.45;1.55;;;13.40;83.70;;;;;;5052804;28;20112;-62
2023/12/25 09:22:03;;;;;;;4.20;1.58;;;13.40;83.70;;;;;;5052382;28;20028;-62
2023/12/25 09:24:29;;;;;;;5.07;1.60;;;13.40;83.60;;;;;;5054394;28;20029;-62
2023/12/25 09:26:55;;;;;;;4.53;1.40;;;13.40;83.60;;;;;;5027359;28;20056;-62
2023/12/25 09:29:20;;;;;;;3.65;1.27;;;13.40;83.60;;;;;;5053666;28;20029;-62
2023/12/25 09:31:46;;;;;;;3.17;1.30;;;13.40;83.50;;;;;;5051615;28;20103;-62
2023/12/25 09:34:12;;;;;;;5.38;1.30;;;13.40;83.50;;;;;;5053131;28;20028;-62
2023/12/25 09:36:37;;;;;;;3.10;1.40;;;13.50;83.60;;;;;;5037111;28;20089;-62
2023/12/25 09:39:03;;;;;;;4.72;1.98;;;13.50;83.60;;;;;;5054430;28;20295;-62
2023/12/25 09:41:32;;;;;;;5.90;2.40;;;13.50;83.60;;;;;;5052176;28;20434;-62
2023/12/25 09:44:00;;;;;;;6.32;1.85;;;13.50;83.60;;;;;;5054106;28;20434;-63
2023/12/25 09:46:28;;;;;;;6.45;1.80;;;13.50;83.60;;;;;;5054042;28;20457;-62
2023/12/25 09:48:55;;;;;;;4.13;1.67;;;13.50;83.60;;;;;;5054189;28;20025;-62
2023/12/25 09:51:22;;;;;;;5.07;1.58;;;13.50;83.60;;;;;;5053666;28;20025;-63
2023/12/25 09:53:48;;;;;;;5.80;1.30;;;13.50;83.60;;;;;;5054166;28;20052;-62
2023/12/25 09:56:16;;;;;;;3.65;1.33;;;13.50;83.60;;;;;;5052851;28;20392;-63
2023/12/25 09:58:44;;;;;;;2.67;1.10;;;13.50;83.50;;;;;;5053992;28;20081;-62
2023/12/25 10:01:14;;;;;;;6.32;1.25;;;13.50;83.50;;;;;;5055828;28;20025;-62
2023/12/25 10:03:47;;;;;;;4.25;1.70;;;13.60;83.60;;;;;;5053514;28;20025;-62
2023/12/25 10:06:13;;;;;;;7.35;2.00;;;13.60;83.50;;;;;;5053834;28;20211;-62
2023/12/25 10:08:39;;;;;;;4.00;1.58;;;13.60;83.50;;;;;;5054076;28;20093;-62
2023/12/25 10:11:08;;;;;;;3.25;1.38;;;13.60;83.40;;;;;;5054174;28;20029;-62
2023/12/25 10:13:34;;;;;;;3.13;1.27;;;13.60;83.40;;;;;;5053086;28;20418;-62
2023/12/25 10:16:02;;;;;;;1.65;1.02;;;13.70;83.40;;;;;;5052236;28;20053;-63
2023/12/25 10:18:28;;;;;;;4.25;1.20;;;13.70;83.30;;;;;;5052858;28;20042;-62
2023/12/25 10:20:59;;;;;;;3.80;1.10;;;13.70;83.30;;;;;;5052673;28;20105;-62
2023/12/25 10:23:32;;;;;;;3.42;1.20;;;13.70;83.20;;;;;;5053708;28;20025;-62
2023/12/25 10:25:59;;;;;;;2.72;1.10;;;13.70;83.10;;;;;;5053175;28;20016;-63
2023/12/25 10:28:29;;;;;;;5.10;1.10;;;13.70;83.10;;;;;;5053257;28;20039;-62
2023/12/25 10:30:59;;;;;;;4.20;1.20;;;13.70;83.00;;;;;;5050149;28;20346;-62
2023/12/25 10:33:26;;;;;;;5.18;1.23;;;13.80;83.10;;;;;;5053138;28;20625;-62
2023/12/25 10:36:09;;;;;;;3.28;1.23;;;13.80;83.10;;;;;;5053829;28;20099;-63
2023/12/25 10:38:45;;;;;;;2.90;1.10;;;13.70;82.90;;;;;;5051366;28;20314;-62
2023/12/25 10:41:22;;;;;;;7.10;1.50;;;13.70;82.90;;;;;;5048968;28;20049;-62
2023/12/25 10:43:58;;;;;;;3.28;1.20;;;13.80;83.00;;;;;;5051878;28;20112;-63
2023/12/25 10:46:26;;;;;;;4.63;1.08;;;13.80;83.00;;;;;;5050141;28;20438;-62
2023/12/25 10:48:55;;;;;;;3.58;1.10;;;13.80;83.00;;;;;;5052476;28;20036;-62
2023/12/25 10:51:26;;;;;;;3.95;1.20;;;13.80;82.90;;;;;;5050835;28;20033;-63
2023/12/25 10:53:53;;;;;;;3.45;1.25;;;13.80;83.00;;;;;;5050141;28;20108;-62
2023/12/25 10:56:24;;;;;;;3.15;1.42;;;13.80;82.90;;;;;;5054348;28;20037;-62
2023/12/25 10:58:51;;;;;;;4.22;1.40;;;13.80;82.90;;;;;;5052021;28;20067;-62
2023/12/25 11:01:24;;;;;;;4.32;1.00;;;13.80;82.90;;;;;;5051473;28;20353;-62
2023/12/25 11:03:52;;;;;;;4.28;1.13;;;13.80;82.80;;;;;;5049306;28;20041;-62
2023/12/25 11:06:20;;;;;;;3.30;1.05;;;13.80;82.80;;;;;;5049376;28;20352;-62
2023/12/25 11:08:46;;;;;;;3.78;1.50;;;13.80;82.80;;;;;;5051500;28;20106;-62
2023/12/25 11:11:13;;;;;;;3.30;1.10;;;13.80;82.80;;;;;;5048811;28;20472;-62
2023/12/25 11:13:42;;;;;;;1.75;0.90;;;13.80;82.70;;;;;;5051607;28;20106;-62
2023/12/25 11:16:09;;;;;;;4.13;1.10;;;13.80;82.70;;;;;;5049973;28;20071;-62
2023/12/25 11:18:37;;;;;;;3.67;1.20;;;13.80;82.60;;;;;;5050604;28;20339;-62
2023/12/25 11:21:04;;;;;;;5.75;1.45;;;13.80;82.60;;;;;;5048905;28;20090;-62
2023/12/25 11:23:37;;;;;;;5.80;2.22;;;13.80;82.60;;;;;;5050626;28;20021;-63
2023/12/25 11:26:07;;;;;;;4.88;1.65;;;13.90;82.50;;;;;;5051452;28;20119;-62
2023/12/25 11:28:37;;;;;;;3.92;1.30;;;13.90;82.30;;;;;;5049230;28;20041;-62
2023/12/25 11:31:04;;;;;;;3.80;1.08;;;14.00;82.10;;;;;;5049078;28;20358;-62
2023/12/25 11:33:42;;;;;;;5.05;1.40;;;14.00;81.90;;;;;;5052214;28;20028;-62
2023/12/25 11:36:14;;;;;;;12.63;3.65;;;14.00;81.60;;;;;;5051976;28;20369;-62
2023/12/25 11:38:42;;;;;;;7.70;2.63;;;14.00;81.40;;;;;;5047704;28;20025;-62
2023/12/25 11:41:13;;;;;;;3.65;1.45;;;14.10;81.20;;;;;;5050286;28;20411;-62
2023/12/25 11:43:40;;;;;;;4.05;1.40;;;14.00;81.00;;;;;;5054398;28;20029;-63
2023/12/25 11:46:12;;;;;;;9.57;1.52;;;14.00;80.90;;;;;;5054006;28;20039;-62
2023/12/25 11:48:38;;;;;;;4.60;1.35;;;14.00;80.70;;;;;;5054605;28;20090;-62
2023/12/25 11:51:25;;;;;;;3.83;1.13;;;14.00;80.70;;;;;;5053120;28;20111;-62
2023/12/25 11:53:53;;;;;;;3.15;1.02;;;14.00;80.60;;;;;;5053991;28;20039;-62
2023/12/25 11:56:19;;;;;;;4.60;1.35;;;14.00;80.60;;;;;;5053082;28;20079;-62
2023/12/25 11:58:46;;;;;;;5.13;1.45;;;14.00;80.40;;;;;;5054545;28;20044;-63
2023/12/25 12:01:17;;;;;;;4.15;1.15;;;14.00;80.40;;;;;;5054199;28;20033;-63
2023/12/25 12:03:46;;;;;;;2.53;1.35;;;14.00;80.30;;;;;;5055365;28;20029;-62
2023/12/25 12:06:14;;;;;;;5.15;1.48;;;14.00;80.20;;;;;;5056805;28;20029;-63
2023/12/25 12:08:41;;;;;;;4.75;1.10;;;14.00;80.20;;;;;;5039258;28;20446;-63
2023/12/25 12:11:11;;;;;;;3.80;0.90;;;14.00;80.20;;;;;;5054548;28;20037;-62
2023/12/25 12:13:37;;;;;;;3.67;0.93;;;14.00;80.00;;;;;;5056659;28;20025;-62
2023/12/25 12:16:04;;;;;;;3.55;1.40;;;14.00;80.10;;;;;;5055419;28;20404;-62
2023/12/25 12:18:30;;;;;;;4.05;1.10;;;14.00;80.00;;;;;;5055584;28;20135;-63
2023/12/25 12:20:56;;;;;;;5.05;1.13;;;14.00;80.00;;;;;;5056792;28;20067;-63
2023/12/25 12:23:22;;;;;;;2.55;0.88;;;14.00;80.00;;;;;;5054656;28;20108;-62
2023/12/25 12:25:48;;;;;;;4.68;1.23;;;14.00;80.00;;;;;;5055810;28;20143;-62
2023/12/25 12:28:16;;;;;;;2.55;0.93;;;14.00;80.00;;;;;;5056592;28;20040;-62
2023/12/25 12:30:43;;;;;;;4.35;1.15;;;14.00;80.00;;;;;;5055712;28;20033;-63
2023/12/25 12:33:10;;;;;;;5.55;1.45;;;13.90;80.00;;;;;;5056142;28;20037;-63
2023/12/25 12:35:36;;;;;;;7.68;1.75;;;13.90;80.10;;;;;;5055432;28;20094;-63
2023/12/25 12:38:05;;;;;;;3.53;1.13;;;13.90;80.20;;;;;;5050682;28;20037;-63
2023/12/25 12:40:32;;;;;;;4.93;1.23;;;13.90;80.30;;;;;;5055321;28;20132;-62
2023/12/25 12:42:58;;;;;;;5.82;1.38;;;13.90;80.30;;;;;;5038696;28;20446;-63